Time;durP1;ratioP1;P1;durP2;ratioP2;P2;SDS_P1;SDS_P2;PMS_P1;PMS_P2;Temp;Humidity;BMP_temperature;BMP_pressure;BME280_temperature;BME280_humidity;BME280_pressure;Samples;Min_cycle;Max_cycle;Signal;HPM_P1;HPM_P2
2024/01/16 00:02:07;;;;;;;11.67;11.17;;;1.70;99.90;;;;;;5081873;28;20210;-61
2024/01/16 00:04:36;;;;;;;11.97;11.47;;;1.70;99.90;;;;;;5074928;28;20280;-62
2024/01/16 00:07:03;;;;;;;12.13;11.63;;;1.70;99.90;;;;;;5082181;28;20207;-64
2024/01/16 00:09:31;;;;;;;11.77;11.27;;;1.70;99.90;;;;;;5089880;28;20215;-61
2024/01/16 00:11:57;;;;;;;12.07;11.57;;;1.70;99.90;;;;;;5085410;28;20279;-62
2024/01/16 00:14:24;;;;;;;12.17;11.67;;;1.80;99.90;;;;;;5084647;28;20226;-63
2024/01/16 00:16:51;;;;;;;12.00;11.50;;;1.80;99.90;;;;;;5071775;28;20199;-62
2024/01/16 00:19:19;;;;;;;11.90;11.40;;;1.80;99.90;;;;;;5078990;28;20195;-61
2024/01/16 00:21:46;;;;;;;11.90;11.40;;;1.80;99.90;;;;;;5078778;28;20218;-61
2024/01/16 00:24:13;;;;;;;12.27;11.77;;;1.70;99.90;;;;;;5082858;28;20276;-61
2024/01/16 00:26:40;;;;;;;11.80;11.30;;;1.80;99.90;;;;;;5082893;28;20206;-62
2024/01/16 00:29:08;;;;;;;11.53;11.13;;;1.80;99.90;;;;;;5086528;28;20231;-61
2024/01/16 00:31:35;;;;;;;12.40;11.90;;;1.80;99.90;;;;;;5084801;28;20231;-61
2024/01/16 00:34:03;;;;;;;12.50;11.90;;;1.70;99.90;;;;;;5081727;28;20228;-61
2024/01/16 00:36:31;;;;;;;12.20;11.70;;;1.80;99.90;;;;;;5090587;28;20203;-62
2024/01/16 00:38:58;;;;;;;12.37;11.87;;;1.70;99.90;;;;;;5084187;28;20219;-62
2024/01/16 00:41:24;;;;;;;11.50;11.10;;;1.70;99.90;;;;;;5080573;28;20207;-63
2024/01/16 00:43:51;;;;;;;11.40;11.00;;;1.70;99.90;;;;;;5077684;28;20850;-63
2024/01/16 00:46:18;;;;;;;11.57;11.07;;;1.70;99.90;;;;;;5085855;28;20199;-61
2024/01/16 00:48:45;;;;;;;11.73;11.23;;;1.70;99.90;;;;;;5082206;28;20206;-63
2024/01/16 00:51:11;;;;;;;11.73;11.23;;;1.80;99.90;;;;;;5080802;28;20203;-63
2024/01/16 00:53:42;;;;;;;11.57;11.07;;;1.80;99.90;;;;;;5080636;28;20221;-63
2024/01/16 00:56:09;;;;;;;12.17;11.67;;;1.80;99.90;;;;;;5086195;28;20301;-61
2024/01/16 00:58:35;;;;;;;12.50;12.00;;;1.80;99.90;;;;;;5081958;28;20204;-62
2024/01/16 01:01:02;;;;;;;12.70;12.17;;;1.80;99.90;;;;;;5088436;28;20211;-62
2024/01/16 01:03:29;;;;;;;11.97;11.47;;;1.80;99.90;;;;;;5091557;28;20223;-64
2024/01/16 01:05:56;;;;;;;11.80;11.30;;;1.80;99.90;;;;;;5081454;28;20219;-62
2024/01/16 01:08:22;;;;;;;12.03;11.43;;;1.80;99.90;;;;;;5091489;28;20199;-62
2024/01/16 01:10:51;;;;;;;12.37;11.87;;;1.80;99.90;;;;;;5088827;28;20283;-63
2024/01/16 01:13:17;;;;;;;12.17;11.67;;;1.80;99.90;;;;;;5088772;28;20206;-63
2024/01/16 01:15:45;;;;;;;12.17;11.67;;;1.90;99.90;;;;;;5084633;28;20203;-62
2024/01/16 01:18:11;;;;;;;11.90;11.40;;;1.80;99.90;;;;;;5078142;28;20238;-62
2024/01/16 01:20:38;;;;;;;11.57;11.18;;;1.80;99.90;;;;;;5080272;28;20217;-63
2024/01/16 01:23:05;;;;;;;11.53;11.13;;;1.80;99.90;;;;;;5078922;28;20207;-61
2024/01/16 01:25:32;;;;;;;12.93;12.33;;;1.80;99.90;;;;;;5082150;28;20203;-65
2024/01/16 01:28:00;;;;;;;12.60;12.00;;;1.80;99.90;;;;;;5079160;28;20212;-63
2024/01/16 01:30:26;;;;;;;12.13;11.63;;;1.70;99.90;;;;;;5078416;28;20229;-62
2024/01/16 01:32:53;;;;;;;12.18;11.68;;;1.70;99.90;;;;;;5072400;28;20203;-62
2024/01/16 01:35:20;;;;;;;12.10;11.60;;;1.70;99.90;;;;;;5075804;28;20227;-63
2024/01/16 01:37:46;;;;;;;12.27;11.77;;;1.70;99.90;;;;;;5074537;28;20207;-61
2024/01/16 01:40:15;;;;;;;11.73;11.27;;;1.70;99.90;;;;;;5068779;28;20268;-62
2024/01/16 01:42:42;;;;;;;11.90;11.40;;;1.80;99.90;;;;;;5070545;28;20264;-61
2024/01/16 01:45:11;;;;;;;11.70;11.30;;;1.80;99.90;;;;;;5066434;28;20226;-62
2024/01/16 01:47:38;;;;;;;13.35;12.65;;;1.80;99.90;;;;;;5070238;28;20565;-64
2024/01/16 01:50:07;;;;;;;11.90;11.40;;;1.70;99.90;;;;;;5070662;28;20227;-62
2024/01/16 01:52:34;;;;;;;11.63;11.17;;;1.70;99.90;;;;;;5069777;28;20686;-62
2024/01/16 01:55:04;;;;;;;11.93;11.43;;;1.60;99.90;;;;;;5069019;28;20235;-64
2024/01/16 01:57:31;;;;;;;13.80;13.10;;;1.60;99.90;;;;;;5069526;28;20210;-64
2024/01/16 01:59:56;;;;;;;12.53;11.93;;;1.60;99.90;;;;;;5067969;28;20207;-61
2024/01/16 02:02:25;;;;;;;12.13;11.63;;;1.60;99.90;;;;;;5070876;28;20252;-63
2024/01/16 02:04:51;;;;;;;12.20;11.70;;;1.60;99.90;;;;;;5065615;28;20223;-63
2024/01/16 02:07:18;;;;;;;12.75;12.15;;;1.60;99.90;;;;;;5067056;28;20200;-64
2024/01/16 02:09:45;;;;;;;11.60;11.20;;;1.50;99.90;;;;;;5071620;28;20222;-62
2024/01/16 02:12:12;;;;;;;11.90;11.40;;;1.50;99.90;;;;;;5077799;28;20203;-64
2024/01/16 02:14:39;;;;;;;11.77;11.27;;;1.50;99.90;;;;;;5076920;28;20241;-63
2024/01/16 02:17:06;;;;;;;11.90;11.40;;;1.50;99.90;;;;;;5079251;28;20215;-61
2024/01/16 02:19:34;;;;;;;11.23;10.83;;;1.40;99.90;;;;;;5070482;28;20828;-61
2024/01/16 02:22:01;;;;;;;11.90;11.40;;;1.50;99.90;;;;;;5071724;28;20211;-63
2024/01/16 02:24:30;;;;;;;11.80;11.30;;;1.40;99.90;;;;;;5074571;28;20273;-61
2024/01/16 02:26:57;;;;;;;12.70;12.20;;;1.40;99.90;;;;;;5069702;28;20207;-64
2024/01/16 02:29:25;;;;;;;11.50;11.10;;;1.30;99.90;;;;;;5081246;28;20203;-64
2024/01/16 02:31:52;;;;;;;11.73;11.23;;;1.40;99.90;;;;;;5084828;28;20203;-64
2024/01/16 02:34:18;;;;;;;11.90;11.40;;;1.40;99.90;;;;;;5071538;28;20602;-63
2024/01/16 02:36:45;;;;;;;11.35;10.88;;;1.30;99.90;;;;;;5069419;28;20203;-64
2024/01/16 02:39:12;;;;;;;11.93;11.43;;;1.30;99.90;;;;;;5072386;28;20702;-62
2024/01/16 02:41:40;;;;;;;11.45;10.95;;;1.30;99.90;;;;;;5067182;28;20203;-63
2024/01/16 02:44:07;;;;;;;11.50;11.00;;;1.30;99.90;;;;;;5072827;28;20220;-63
2024/01/16 02:46:34;;;;;;;11.30;10.87;;;1.20;99.90;;;;;;5074713;28;20253;-61
2024/01/16 02:49:01;;;;;;;12.10;11.60;;;1.20;99.90;;;;;;5071990;28;20200;-63
2024/01/16 02:51:27;;;;;;;11.83;11.33;;;1.20;99.90;;;;;;5072186;28;20226;-62
2024/01/16 02:53:54;;;;;;;11.80;11.30;;;1.20;99.90;;;;;;5067346;28;20698;-63
2024/01/16 02:56:21;;;;;;;11.83;11.33;;;1.20;99.90;;;;;;5072529;28;20205;-64
2024/01/16 02:58:49;;;;;;;11.87;11.37;;;1.10;99.90;;;;;;5069493;28;20199;-63
2024/01/16 03:01:16;;;;;;;11.40;10.90;;;1.10;99.90;;;;;;5067463;28;20207;-62
2024/01/16 03:03:43;;;;;;;11.83;11.33;;;1.20;99.90;;;;;;5068189;28;20255;-61
2024/01/16 03:06:09;;;;;;;11.97;11.47;;;1.10;99.90;;;;;;5077540;28;20203;-61
2024/01/16 03:08:36;;;;;;;12.18;11.68;;;1.10;99.90;;;;;;5075933;28;20257;-62
2024/01/16 03:11:04;;;;;;;11.93;11.43;;;1.20;99.90;;;;;;5079249;28;20219;-62
2024/01/16 03:13:31;;;;;;;11.30;10.80;;;1.20;99.90;;;;;;5078448;28;20223;-64
2024/01/16 03:15:59;;;;;;;12.50;11.93;;;1.10;99.90;;;;;;5079717;28;20203;-63
2024/01/16 03:18:26;;;;;;;11.70;11.20;;;1.10;99.90;;;;;;5077772;28;20230;-62
2024/01/16 03:20:52;;;;;;;12.37;11.83;;;1.10;99.90;;;;;;5073834;28;20222;-62
2024/01/16 03:23:19;;;;;;;11.83;11.33;;;1.10;99.90;;;;;;5070513;28;20219;-62
2024/01/16 03:25:46;;;;;;;11.87;11.37;;;1.10;99.90;;;;;;5068671;28;20239;-61
2024/01/16 03:28:14;;;;;;;11.67;11.17;;;1.00;99.90;;;;;;5068545;28;20616;-64
2024/01/16 03:30:40;;;;;;;11.53;11.03;;;1.00;99.90;;;;;;5069691;28;20223;-64
2024/01/16 03:33:09;;;;;;;11.80;11.30;;;1.00;99.90;;;;;;5069568;28;20211;-62
2024/01/16 03:35:35;;;;;;;12.10;11.60;;;0.90;99.90;;;;;;5070391;28;20275;-63
2024/01/16 03:38:02;;;;;;;11.37;10.87;;;0.90;99.90;;;;;;5069309;28;20234;-63
2024/01/16 03:40:33;;;;;;;11.73;11.23;;;0.90;99.90;;;;;;5069377;28;20263;-63
2024/01/16 03:43:00;;;;;;;11.70;11.20;;;0.90;99.90;;;;;;5069109;28;20248;-62
2024/01/16 03:45:27;;;;;;;12.43;11.83;;;0.80;99.90;;;;;;5068420;28;20219;-62
2024/01/16 03:47:54;;;;;;;12.07;11.57;;;0.80;99.90;;;;;;5067421;28;20659;-62
2024/01/16 03:50:22;;;;;;;12.30;11.77;;;0.80;99.90;;;;;;5068616;28;20230;-62
2024/01/16 03:52:48;;;;;;;11.60;11.10;;;0.70;99.90;;;;;;5072582;28;20226;-62
2024/01/16 03:55:15;;;;;;;12.50;12.00;;;0.60;99.90;;;;;;5074073;28;20222;-64
2024/01/16 03:57:43;;;;;;;12.27;11.70;;;0.50;99.90;;;;;;5082107;28;20203;-62
2024/01/16 04:00:13;;;;;;;11.67;11.17;;;0.40;99.90;;;;;;5087884;28;20206;-63
2024/01/16 04:02:40;;;;;;;12.23;11.73;;;0.30;99.90;;;;;;5091804;28;20195;-61
2024/01/16 04:05:07;;;;;;;12.50;12.00;;;0.30;99.90;;;;;;5091201;28;20238;-62
2024/01/16 04:07:35;;;;;;;14.70;13.90;;;0.20;99.90;;;;;;5091119;28;20227;-61
2024/01/16 04:10:05;;;;;;;13.40;12.80;;;0.10;99.90;;;;;;5081342;28;20682;-63
2024/01/16 04:12:31;;;;;;;13.57;12.98;;;0.10;99.90;;;;;;5072822;28;20600;-62
2024/01/16 04:14:58;;;;;;;13.40;12.80;;;0.00;99.90;;;;;;5073169;28;20227;-61
2024/01/16 04:17:25;;;;;;;13.63;13.03;;;0.00;99.90;;;;;;5072455;28;20219;-63
2024/01/16 04:19:51;;;;;;;13.00;12.40;;;-0.10;99.90;;;;;;5072462;28;20195;-63
2024/01/16 04:22:18;;;;;;;12.70;12.20;;;-0.10;99.90;;;;;;5072930;28;20580;-64
2024/01/16 04:24:47;;;;;;;12.87;12.37;;;-0.20;99.90;;;;;;5072459;28;20250;-62
2024/01/16 04:27:14;;;;;;;14.07;13.47;;;-0.40;99.90;;;;;;5071972;28;20203;-63
2024/01/16 04:29:41;;;;;;;12.40;11.90;;;-0.50;99.90;;;;;;5074041;28;20203;-63
2024/01/16 04:32:08;;;;;;;12.57;12.07;;;-0.50;99.90;;;;;;5067119;28;20231;-62
2024/01/16 04:34:35;;;;;;;13.30;12.70;;;-0.50;99.90;;;;;;5072319;28;20238;-62
2024/01/16 04:37:03;;;;;;;13.10;12.50;;;-0.60;99.90;;;;;;5069921;28;20200;-63
2024/01/16 04:39:30;;;;;;;12.73;12.23;;;-0.70;99.90;;;;;;5069198;28;20208;-62
2024/01/16 04:41:58;;;;;;;12.53;11.93;;;-0.80;99.90;;;;;;5066384;28;20900;-62
2024/01/16 04:44:24;;;;;;;12.60;12.00;;;-0.90;99.90;;;;;;5074892;28;20218;-62
2024/01/16 04:46:51;;;;;;;12.33;11.73;;;-1.00;99.90;;;;;;5067574;28;20685;-63
2024/01/16 04:49:18;;;;;;;11.50;11.00;;;-1.10;99.90;;;;;;5070195;28;20199;-62
2024/01/16 04:51:44;;;;;;;11.40;10.90;;;-1.20;99.90;;;;;;5090246;28;20215;-62
2024/01/16 04:54:13;;;;;;;11.87;11.37;;;-1.20;99.90;;;;;;5080615;28;20684;-63
2024/01/16 04:56:39;;;;;;;12.17;11.57;;;-1.30;99.90;;;;;;5068911;28;20203;-63
2024/01/16 04:59:07;;;;;;;11.67;11.17;;;-1.30;99.90;;;;;;5064263;28;20204;-63
2024/01/16 05:01:34;;;;;;;11.45;10.95;;;-1.30;99.90;;;;;;5069140;28;20206;-63
2024/01/16 05:04:01;;;;;;;11.57;11.05;;;-1.30;99.90;;;;;;5065016;28;20226;-63
2024/01/16 05:06:27;;;;;;;11.93;11.40;;;-1.40;99.90;;;;;;5069453;28;20203;-64
2024/01/16 05:08:54;;;;;;;12.50;11.80;;;-1.40;99.90;;;;;;5070517;28;20568;-63
2024/01/16 05:11:21;;;;;;;11.70;11.20;;;-1.40;99.90;;;;;;5067151;28;20216;-63
2024/01/16 05:13:47;;;;;;;12.57;11.98;;;-1.40;99.90;;;;;;5069088;28;20611;-60
2024/01/16 05:16:16;;;;;;;12.20;11.70;;;-1.50;99.90;;;;;;5072239;28;20203;-61
2024/01/16 05:18:42;;;;;;;12.00;11.43;;;-1.50;99.90;;;;;;5075213;28;20211;-62
2024/01/16 05:21:09;;;;;;;10.93;10.43;;;-1.60;99.90;;;;;;5073298;28;20203;-61
2024/01/16 05:23:37;;;;;;;12.43;11.82;;;-1.60;99.90;;;;;;5071101;28;20227;-62
2024/01/16 05:26:03;;;;;;;11.60;11.10;;;-1.60;99.90;;;;;;5066134;28;20268;-62
2024/01/16 05:28:30;;;;;;;12.15;11.55;;;-1.60;99.90;;;;;;5066590;28;20207;-62
2024/01/16 05:30:57;;;;;;;12.67;12.07;;;-1.60;99.90;;;;;;5068157;28;20219;-62
2024/01/16 05:33:25;;;;;;;11.73;11.17;;;-1.60;99.90;;;;;;5068295;28;20679;-63
2024/01/16 05:35:52;;;;;;;12.82;12.13;;;-1.60;99.90;;;;;;5072889;28;20207;-62
2024/01/16 05:38:18;;;;;;;12.23;11.63;;;-1.50;99.90;;;;;;5069626;28;20204;-61
2024/01/16 05:40:45;;;;;;;13.27;12.60;;;-1.50;99.90;;;;;;5068454;28;20203;-62
2024/01/16 05:43:12;;;;;;;12.82;12.23;;;-1.60;99.90;;;;;;5075073;28;20199;-63
2024/01/16 05:45:39;;;;;;;12.10;11.50;;;-1.60;99.90;;;;;;5080375;28;20210;-62
2024/01/16 05:48:07;;;;;;;12.25;11.65;;;-1.70;99.90;;;;;;5080024;28;20243;-62
2024/01/16 05:50:35;;;;;;;12.93;12.32;;;-1.80;99.90;;;;;;5070882;28;20721;-62
2024/01/16 05:53:02;;;;;;;11.80;11.30;;;-1.90;99.90;;;;;;5068426;28;20218;-64
2024/01/16 05:55:31;;;;;;;11.65;11.10;;;-1.90;99.90;;;;;;5071414;28;20219;-67
2024/01/16 05:57:59;;;;;;;11.20;10.70;;;-1.90;99.90;;;;;;5074130;28;20243;-66
2024/01/16 06:00:26;;;;;;;11.48;10.90;;;-1.90;99.90;;;;;;5070929;28;20243;-67
2024/01/16 06:02:52;;;;;;;12.77;12.07;;;-1.90;99.90;;;;;;5069754;28;20200;-65
2024/01/16 06:05:19;;;;;;;12.73;12.13;;;-1.90;99.90;;;;;;5068010;28;20556;-66
2024/01/16 06:07:47;;;;;;;14.70;13.70;;;-1.90;99.90;;;;;;5069063;28;20196;-67
2024/01/16 06:10:14;;;;;;;12.13;11.52;;;-1.90;99.90;;;;;;5069436;28;20214;-66
2024/01/16 06:12:41;;;;;;;12.55;11.95;;;-1.80;99.90;;;;;;5067522;28;20223;-66
2024/01/16 06:15:09;;;;;;;11.80;11.27;;;-1.80;99.90;;;;;;5069990;28;20234;-67
2024/01/16 06:17:35;;;;;;;13.03;12.27;;;-1.80;99.90;;;;;;5071936;28;20218;-66
2024/01/16 06:20:04;;;;;;;12.70;12.00;;;-1.70;99.90;;;;;;5070959;28;20678;-66
2024/01/16 06:22:31;;;;;;;12.50;11.90;;;-1.80;99.90;;;;;;5073404;28;20199;-66
2024/01/16 06:24:59;;;;;;;12.55;11.90;;;-1.80;99.90;;;;;;5066223;28;20308;-66
2024/01/16 06:27:26;;;;;;;11.52;10.93;;;-1.90;99.90;;;;;;5066553;28;20211;-66
2024/01/16 06:29:52;;;;;;;13.15;12.40;;;-1.90;99.90;;;;;;5069137;28;20691;-66
2024/01/16 06:32:19;;;;;;;12.63;11.93;;;-1.90;99.90;;;;;;5071508;28;20234;-67
2024/01/16 06:34:46;;;;;;;12.77;12.07;;;-1.90;99.90;;;;;;5069781;28;20227;-65
2024/01/16 06:37:13;;;;;;;11.80;11.30;;;-1.90;99.90;;;;;;5068650;28;20219;-65
2024/01/16 06:39:40;;;;;;;12.98;12.27;;;-2.00;99.90;;;;;;5073892;28;20207;-67
2024/01/16 06:42:08;;;;;;;12.40;11.82;;;-2.00;99.90;;;;;;5080196;28;20211;-65
2024/01/16 06:44:35;;;;;;;13.10;12.45;;;-2.00;99.90;;;;;;5087261;28;20242;-67
2024/01/16 06:47:02;;;;;;;13.37;12.67;;;-2.00;99.90;;;;;;5080512;28;20214;-66
2024/01/16 06:49:29;;;;;;;13.73;13.13;;;-2.00;99.90;;;;;;5082565;28;20203;-67
2024/01/16 06:51:57;;;;;;;13.33;12.73;;;-2.00;99.90;;;;;;5084969;28;20234;-66
2024/01/16 06:54:23;;;;;;;13.75;13.05;;;-2.00;99.90;;;;;;5083520;28;20219;-66
2024/01/16 06:56:50;;;;;;;14.02;13.32;;;-2.00;99.90;;;;;;5074344;28;20665;-66
2024/01/16 06:59:21;;;;;;;13.52;12.75;;;-2.00;99.90;;;;;;5080454;28;20195;-66
2024/01/16 07:01:48;;;;;;;14.23;13.52;;;-2.00;99.90;;;;;;5075231;28;20221;-66
2024/01/16 07:04:15;;;;;;;14.70;13.90;;;-2.10;99.90;;;;;;5066289;28;20310;-66
2024/01/16 07:06:41;;;;;;;14.73;13.93;;;-2.10;99.90;;;;;;5066740;28;20195;-67
2024/01/16 07:09:10;;;;;;;14.27;13.57;;;-2.10;99.90;;;;;;5065920;28;20688;-66
2024/01/16 07:11:37;;;;;;;13.45;12.85;;;-2.00;99.90;;;;;;5070419;28;20229;-66
2024/01/16 07:14:04;;;;;;;12.50;12.00;;;-2.00;99.90;;;;;;5078582;28;20230;-66
2024/01/16 07:16:32;;;;;;;13.27;12.68;;;-1.90;99.90;;;;;;5082530;28;20207;-66
2024/01/16 07:18:59;;;;;;;13.38;12.75;;;-1.90;99.90;;;;;;5070139;28;20229;-66
2024/01/16 07:21:26;;;;;;;12.97;12.37;;;-1.80;99.90;;;;;;5064385;28;20242;-66
2024/01/16 07:23:52;;;;;;;12.75;12.15;;;-1.90;99.90;;;;;;5068140;28;20223;-65
2024/01/16 07:26:19;;;;;;;13.38;12.68;;;-1.80;99.90;;;;;;5071086;28;20215;-66
2024/01/16 07:28:47;;;;;;;11.40;10.90;;;-1.80;99.90;;;;;;5067589;28;20215;-66
2024/01/16 07:31:14;;;;;;;12.32;11.82;;;-1.80;99.90;;;;;;5067542;28;20227;-67
2024/01/16 07:33:42;;;;;;;12.03;11.53;;;-1.80;99.90;;;;;;5081219;28;20223;-66
2024/01/16 07:36:10;;;;;;;12.88;12.23;;;-1.80;99.90;;;;;;5082659;28;20202;-66
2024/01/16 07:38:37;;;;;;;12.52;11.93;;;-1.80;99.90;;;;;;5083073;28;20206;-65
2024/01/16 07:41:05;;;;;;;12.60;12.00;;;-1.80;99.90;;;;;;5077612;28;20215;-67
2024/01/16 07:43:32;;;;;;;11.87;11.37;;;-1.80;99.90;;;;;;5077966;28;20773;-67
2024/01/16 07:45:59;;;;;;;12.27;11.57;;;-1.80;99.90;;;;;;5080928;28;20207;-65
2024/01/16 07:48:25;;;;;;;12.80;12.10;;;-1.80;99.90;;;;;;5076928;28;20207;-66
2024/01/16 07:50:53;;;;;;;12.82;12.18;;;-1.80;99.90;;;;;;5077503;28;20226;-66
2024/01/16 07:53:20;;;;;;;11.83;11.23;;;-1.80;99.90;;;;;;5081458;28;20656;-67
2024/01/16 07:55:47;;;;;;;11.33;10.83;;;-1.70;99.90;;;;;;5080415;28;20207;-66
2024/01/16 07:58:14;;;;;;;12.88;12.27;;;-1.60;99.90;;;;;;5076664;28;20198;-66
2024/01/16 08:00:41;;;;;;;11.77;11.23;;;-1.50;99.90;;;;;;5076272;28;20211;-67
2024/01/16 08:03:10;;;;;;;12.00;11.50;;;-1.50;99.90;;;;;;5077012;28;20210;-67
2024/01/16 08:05:37;;;;;;;12.85;12.13;;;-1.40;99.90;;;;;;5074099;28;20218;-66
2024/01/16 08:08:05;;;;;;;12.02;11.43;;;-1.40;99.90;;;;;;5077124;28;20577;-66
2024/01/16 08:10:32;;;;;;;11.67;11.17;;;-1.40;99.90;;;;;;5074292;28;20208;-66
2024/01/16 08:12:59;;;;;;;11.37;10.87;;;-1.30;99.90;;;;;;5071394;28;20601;-67
2024/01/16 08:15:26;;;;;;;11.65;11.15;;;-1.30;99.90;;;;;;5077157;28;20748;-66
2024/01/16 08:17:52;;;;;;;11.70;11.10;;;-1.30;99.90;;;;;;5068125;28;20230;-67
2024/01/16 08:20:19;;;;;;;11.97;11.47;;;-1.30;99.90;;;;;;5068333;28;20199;-66
2024/01/16 08:22:46;;;;;;;11.77;11.27;;;-1.20;99.90;;;;;;5069376;28;20200;-67
2024/01/16 08:25:14;;;;;;;11.52;11.02;;;-1.20;99.90;;;;;;5068464;28;20231;-66
2024/01/16 08:27:41;;;;;;;11.90;11.30;;;-1.20;99.90;;;;;;5068943;28;20241;-66
2024/01/16 08:30:09;;;;;;;10.93;10.43;;;-1.10;99.90;;;;;;5071595;28;20257;-65
2024/01/16 08:32:36;;;;;;;12.20;11.60;;;-1.10;99.90;;;;;;5069069;28;20298;-66
2024/01/16 08:35:05;;;;;;;12.07;11.47;;;-1.10;99.90;;;;;;5071559;28;20227;-66
2024/01/16 08:37:32;;;;;;;13.13;12.40;;;-1.00;99.90;;;;;;5071648;28;20199;-65
2024/01/16 08:39:59;;;;;;;11.83;11.27;;;-0.90;99.90;;;;;;5073110;28;20554;-67
2024/01/16 08:42:27;;;;;;;11.87;11.37;;;-0.90;99.90;;;;;;5078065;28;20283;-66
2024/01/16 08:44:53;;;;;;;12.30;11.70;;;-0.80;99.90;;;;;;5079169;28;20223;-67
2024/01/16 08:47:20;;;;;;;12.40;11.80;;;-0.80;99.90;;;;;;5078704;28;20202;-65
2024/01/16 08:49:48;;;;;;;11.83;11.33;;;-0.70;99.90;;;;;;5079552;28;20603;-65
2024/01/16 08:52:15;;;;;;;12.17;11.57;;;-0.60;99.90;;;;;;5080520;28;20223;-66
2024/01/16 08:54:42;;;;;;;12.07;11.57;;;-0.60;99.90;;;;;;5080729;28;20230;-67
2024/01/16 08:57:10;;;;;;;12.37;11.77;;;-0.50;99.90;;;;;;5074626;28;20203;-67
2024/01/16 08:59:39;;;;;;;12.83;12.23;;;-0.50;99.90;;;;;;5074724;28;20642;-66
2024/01/16 09:02:06;;;;;;;12.43;11.83;;;-0.40;99.90;;;;;;5077858;28;20250;-67
2024/01/16 09:04:32;;;;;;;12.57;12.07;;;-0.30;99.90;;;;;;5076822;28;20223;-67
2024/01/16 09:06:59;;;;;;;11.40;10.90;;;-0.30;99.90;;;;;;5076295;28;20271;-65
2024/01/16 09:09:26;;;;;;;13.27;12.67;;;-0.10;99.90;;;;;;5077856;28;20203;-66
2024/01/16 09:11:53;;;;;;;12.97;12.37;;;0.00;99.90;;;;;;5075658;28;20267;-66
2024/01/16 09:14:20;;;;;;;14.03;13.43;;;0.10;99.90;;;;;;5074158;28;20230;-66
2024/01/16 09:16:48;;;;;;;14.27;13.57;;;0.20;99.90;;;;;;5075113;28;20232;-66
2024/01/16 09:19:15;;;;;;;14.13;13.52;;;0.30;99.90;;;;;;5072394;28;20214;-66
2024/01/16 09:21:41;;;;;;;14.10;13.50;;;0.40;99.90;;;;;;5073164;28;20199;-67
2024/01/16 09:24:09;;;;;;;14.05;13.45;;;0.40;99.90;;;;;;5074100;28;20223;-67
2024/01/16 09:26:36;;;;;;;14.23;13.63;;;0.50;99.90;;;;;;5074187;28;20203;-66
2024/01/16 09:29:02;;;;;;;13.70;13.10;;;0.50;99.90;;;;;;5070333;28;20204;-66
2024/01/16 09:31:29;;;;;;;14.43;13.73;;;0.50;99.90;;;;;;5072183;28;20214;-65
2024/01/16 09:33:57;;;;;;;13.53;12.93;;;0.60;99.90;;;;;;5072128;28;20322;-66
2024/01/16 09:36:24;;;;;;;13.77;13.10;;;0.80;99.90;;;;;;5077812;28;20576;-67
2024/01/16 09:38:51;;;;;;;13.03;12.53;;;0.90;99.90;;;;;;5077736;28;20467;-66
2024/01/16 09:41:18;;;;;;;12.55;11.95;;;1.00;99.90;;;;;;5075938;28;20204;-65
2024/01/16 09:43:46;;;;;;;13.17;12.57;;;1.30;99.90;;;;;;5077236;28;20722;-67
2024/01/16 09:46:16;;;;;;;12.15;11.57;;;1.40;99.90;;;;;;5069996;28;20211;-65
2024/01/16 09:48:45;;;;;;;12.07;11.57;;;1.50;99.90;;;;;;5070107;28;20229;-66
2024/01/16 09:51:15;;;;;;;12.33;11.83;;;1.70;99.90;;;;;;5066540;28;20624;-67
2024/01/16 09:53:42;;;;;;;11.87;11.37;;;2.00;99.90;;;;;;5069009;28;20224;-67
2024/01/16 09:56:15;;;;;;;13.17;12.60;;;2.00;99.90;;;;;;5069760;28;20207;-67
2024/01/16 09:58:43;;;;;;;13.93;13.33;;;2.10;99.90;;;;;;5068772;28;20203;-66
2024/01/16 10:01:11;;;;;;;13.57;12.98;;;2.30;99.90;;;;;;5068504;28;20213;-65
2024/01/16 10:03:38;;;;;;;13.07;12.57;;;2.40;99.90;;;;;;5070244;28;20239;-67
2024/01/16 10:06:07;;;;;;;14.10;13.50;;;2.50;99.90;;;;;;5071273;28;20767;-65
2024/01/16 10:08:35;;;;;;;13.83;13.33;;;2.60;99.90;;;;;;5067180;28;20222;-66
2024/01/16 10:11:02;;;;;;;14.90;14.30;;;2.70;99.90;;;;;;5066930;28;20527;-66
2024/01/16 10:13:30;;;;;;;16.03;15.43;;;2.80;99.90;;;;;;5068294;28;20212;-67
2024/01/16 10:15:57;;;;;;;15.48;14.88;;;3.00;99.90;;;;;;5070525;28;20203;-67
2024/01/16 10:18:25;;;;;;;13.73;13.13;;;3.10;99.90;;;;;;5067598;28;20620;-66
2024/01/16 10:20:53;;;;;;;13.33;12.83;;;3.30;99.90;;;;;;5071271;28;20203;-67
2024/01/16 10:23:23;;;;;;;13.47;12.87;;;3.40;99.90;;;;;;5072995;28;20199;-67
2024/01/16 10:26:06;;;;;;;13.52;12.98;;;3.60;99.90;;;;;;5069494;28;20208;-65
2024/01/16 10:28:34;;;;;;;12.90;12.40;;;3.80;99.90;;;;;;5065372;28;20195;-66
2024/01/16 10:31:03;;;;;;;12.63;12.13;;;3.80;99.90;;;;;;5069513;28;20215;-65
2024/01/16 10:33:30;;;;;;;12.87;12.37;;;3.90;99.90;;;;;;5061930;28;20231;-67
2024/01/16 10:36:09;;;;;;;13.60;13.00;;;3.90;99.90;;;;;;5067536;28;20538;-67
2024/01/16 10:38:38;;;;;;;13.33;12.80;;;3.70;99.90;;;;;;5065904;28;20234;-66
2024/01/16 10:41:10;;;;;;;13.57;13.00;;;3.50;99.90;;;;;;5065418;28;20242;-66
2024/01/16 10:43:37;;;;;;;13.80;13.20;;;3.40;99.90;;;;;;5064506;28;20248;-67
2024/01/16 10:46:11;;;;;;;14.33;13.73;;;3.20;99.90;;;;;;5070310;28;20227;-66
2024/01/16 10:48:39;;;;;;;13.30;12.80;;;3.10;99.90;;;;;;5074251;28;20760;-66
2024/01/16 10:51:08;;;;;;;14.10;13.50;;;3.00;99.90;;;;;;5079609;28;20199;-65
2024/01/16 10:53:35;;;;;;;14.80;14.20;;;2.70;99.90;;;;;;5072275;28;20231;-65
2024/01/16 10:56:04;;;;;;;14.73;14.13;;;2.60;99.90;;;;;;5069484;28;20211;-67
2024/01/16 10:58:32;;;;;;;15.27;14.67;;;2.40;99.90;;;;;;5069322;28;20298;-65
2024/01/16 11:01:03;;;;;;;15.77;15.07;;;2.50;99.90;;;;;;5066006;28;20662;-66
2024/01/16 11:03:36;;;;;;;14.50;13.90;;;2.60;99.90;;;;;;5067193;28;20313;-67
2024/01/16 11:06:04;;;;;;;14.00;13.43;;;2.70;99.90;;;;;;5070439;28;20231;-67
2024/01/16 11:08:33;;;;;;;14.33;13.80;;;2.70;99.90;;;;;;5069262;28;20215;-65
2024/01/16 11:11:01;;;;;;;14.50;13.90;;;2.80;99.90;;;;;;5063592;28;20211;-66
2024/01/16 11:13:28;;;;;;;14.67;14.07;;;2.90;99.90;;;;;;5070309;28;20227;-67
2024/01/16 11:15:58;;;;;;;15.27;14.57;;;2.80;99.90;;;;;;5076584;28;20207;-67
2024/01/16 11:18:28;;;;;;;14.10;13.50;;;2.80;99.90;;;;;;5074903;28;20674;-65
2024/01/16 11:20:55;;;;;;;14.27;13.77;;;2.90;99.90;;;;;;5065680;28;20212;-67
2024/01/16 11:23:24;;;;;;;15.43;14.73;;;2.90;99.90;;;;;;5067224;28;20206;-66
2024/01/16 11:25:51;;;;;;;13.67;13.07;;;2.90;99.90;;;;;;5063090;28;20449;-67
2024/01/16 11:28:19;;;;;;;15.00;14.40;;;2.80;99.90;;;;;;5068751;28;20661;-67
2024/01/16 11:30:47;;;;;;;14.63;14.03;;;2.80;99.90;;;;;;5068625;28;20261;-68
2024/01/16 11:33:46;;;;;;;14.87;14.27;;;2.90;99.90;;;;;;5069988;28;20290;-67
2024/01/16 11:36:44;;;;;;;14.53;13.90;;;2.90;99.90;;;;;;5065671;28;20249;-65
2024/01/16 11:39:17;;;;;;;14.30;13.70;;;3.00;99.90;;;;;;5070256;28;20264;-67
2024/01/16 11:41:52;;;;;;;13.63;13.13;;;3.00;99.90;;;;;;5070363;28;20203;-67
2024/01/16 11:44:38;;;;;;;13.93;13.40;;;3.00;99.90;;;;;;5074095;28;20240;-66
2024/01/16 11:47:05;;;;;;;14.20;13.60;;;2.90;99.90;;;;;;5069253;28;20290;-65
2024/01/16 11:49:33;;;;;;;13.93;13.33;;;2.90;99.90;;;;;;5071292;28;20580;-65
2024/01/16 11:52:00;;;;;;;13.70;13.20;;;2.90;99.90;;;;;;5078003;28;20241;-66
2024/01/16 11:54:27;;;;;;;14.07;13.47;;;2.80;99.90;;;;;;5070047;28;20227;-66
2024/01/16 11:57:27;;;;;;;14.10;13.50;;;2.80;99.90;;;;;;5072836;28;20207;-67
2024/01/16 12:00:02;;;;;;;14.13;13.53;;;2.80;99.90;;;;;;5070071;28;20222;-65
2024/01/16 12:02:45;;;;;;;12.93;12.37;;;2.80;99.90;;;;;;5071654;28;20199;-65
2024/01/16 12:05:13;;;;;;;13.53;12.93;;;2.90;99.90;;;;;;5061138;28;20223;-65
2024/01/16 12:07:50;;;;;;;14.50;13.80;;;2.80;99.90;;;;;;5070094;28;20202;-65
2024/01/16 12:10:18;;;;;;;13.60;13.00;;;2.70;99.90;;;;;;5069129;28;20222;-67
2024/01/16 12:12:46;;;;;;;13.23;12.73;;;2.80;99.90;;;;;;5069256;28;20231;-65
2024/01/16 12:15:17;;;;;;;13.83;13.13;;;2.80;99.90;;;;;;5071630;28;20223;-66
2024/01/16 12:17:54;;;;;;;14.80;14.10;;;2.70;99.90;;;;;;5073185;28;20257;-66
2024/01/16 12:20:24;;;;;;;13.50;12.90;;;2.80;99.90;;;;;;5074393;28;20199;-66
2024/01/16 12:22:55;;;;;;;13.07;12.57;;;2.80;99.90;;;;;;5072543;28;20204;-65
2024/01/16 12:25:22;;;;;;;13.50;12.93;;;2.90;99.90;;;;;;5071686;28;20223;-66
2024/01/16 12:27:56;;;;;;;15.20;14.40;;;3.00;99.90;;;;;;5070064;28;20245;-66
2024/01/16 12:30:24;;;;;;;13.73;13.13;;;3.00;99.90;;;;;;5068391;28;20215;-67
2024/01/16 12:32:51;;;;;;;13.23;12.73;;;2.90;99.90;;;;;;5071016;28;20922;-65
2024/01/16 12:35:23;;;;;;;14.50;13.90;;;3.00;99.90;;;;;;5070607;28;20224;-66
2024/01/16 12:38:00;;;;;;;14.90;14.20;;;3.10;99.90;;;;;;5066230;28;20223;-64